sensor_id;sensor_type;location;lat;lon;timestamp;pressure;altitude;pressure_sealevel;temperature;humidity
6218;BME280;3142;48.206;11.550;2023-03-01T00:02:26;96325.25;;;2.95;65.94
6218;BME280;3142;48.206;11.550;2023-03-01T00:04:52;96320.88;;;2.86;65.77
6218;BME280;3142;48.206;11.550;2023-03-01T00:07:18;96323.06;;;2.81;65.20
6218;BME280;3142;48.206;11.550;2023-03-01T00:09:45;96321.31;;;2.81;65.46
6218;BME280;3142;48.206;11.550;2023-03-01T00:12:13;96321.06;;;2.75;66.16
6218;BME280;3142;48.206;11.550;2023-03-01T00:14:39;96319.00;;;2.78;65.58
6218;BME280;3142;48.206;11.550;2023-03-01T00:17:06;96319.13;;;2.77;66.17
6218;BME280;3142;48.206;11.550;2023-03-01T00:19:32;96315.47;;;2.79;65.46
6218;BME280;3142;48.206;11.550;2023-03-01T00:21:58;96315.59;;;2.78;66.30
6218;BME280;3142;48.206;11.550;2023-03-01T00:24:25;96316.28;;;2.80;65.43
6218;BME280;3142;48.206;11.550;2023-03-01T00:26:52;96310.31;;;2.89;65.68
6218;BME280;3142;48.206;11.550;2023-03-01T00:29:22;96310.03;;;2.92;65.84
6218;BME280;3142;48.206;11.550;2023-03-01T00:31:48;96316.00;;;2.83;65.40
6218;BME280;3142;48.206;11.550;2023-03-01T00:34:15;96316.41;;;2.78;66.36
6218;BME280;3142;48.206;11.550;2023-03-01T00:36:41;96313.84;;;2.78;65.62
6218;BME280;3142;48.206;11.550;2023-03-01T00:39:11;96306.91;;;2.79;65.79
6218;BME280;3142;48.206;11.550;2023-03-01T00:41:37;96300.78;;;2.80;66.26
6218;BME280;3142;48.206;11.550;2023-03-01T00:44:05;96294.25;;;2.76;65.59
6218;BME280;3142;48.206;11.550;2023-03-01T00:46:33;96294.50;;;2.73;66.28
6218;BME280;3142;48.206;11.550;2023-03-01T00:48:59;96302.25;;;2.73;65.88
6218;BME280;3142;48.206;11.550;2023-03-01T00:51:28;96298.88;;;2.62;65.70
6218;BME280;3142;48.206;11.550;2023-03-01T00:53:57;96295.75;;;2.68;65.65
6218;BME280;3142;48.206;11.550;2023-03-01T00:56:24;96296.84;;;2.76;66.05
6218;BME280;3142;48.206;11.550;2023-03-01T00:58:51;96296.97;;;2.64;65.86
6218;BME280;3142;48.206;11.550;2023-03-01T01:01:20;96285.69;;;2.65;66.37
6218;BME280;3142;48.206;11.550;2023-03-01T01:03:49;96287.47;;;2.65;65.47
6218;BME280;3142;48.206;11.550;2023-03-01T01:06:18;96277.66;;;2.59;65.95
6218;BME280;3142;48.206;11.550;2023-03-01T01:08:46;96278.22;;;2.53;65.99
6218;BME280;3142;48.206;11.550;2023-03-01T01:11:13;96262.06;;;2.60;66.19
6218;BME280;3142;48.206;11.550;2023-03-01T01:13:40;96271.28;;;2.53;66.01
6218;BME280;3142;48.206;11.550;2023-03-01T01:16:06;96262.19;;;2.49;65.96
6218;BME280;3142;48.206;11.550;2023-03-01T01:18:33;96272.22;;;2.52;65.84
6218;BME280;3142;48.206;11.550;2023-03-01T01:21:05;96262.72;;;2.53;65.75
6218;BME280;3142;48.206;11.550;2023-03-01T01:23:32;96260.13;;;2.53;66.12
6218;BME280;3142;48.206;11.550;2023-03-01T01:26:03;96256.47;;;2.55;65.92
6218;BME280;3142;48.206;11.550;2023-03-01T01:28:29;96250.63;;;2.63;66.22
6218;BME280;3142;48.206;11.550;2023-03-01T01:30:56;96244.78;;;2.61;65.71
6218;BME280;3142;48.206;11.550;2023-03-01T01:33:22;96244.91;;;2.59;65.99
6218;BME280;3142;48.206;11.550;2023-03-01T01:35:49;96242.88;;;2.63;65.47
6218;BME280;3142;48.206;11.550;2023-03-01T01:38:17;96247.75;;;2.66;65.75
6218;BME280;3142;48.206;11.550;2023-03-01T01:40:43;96245.84;;;2.68;66.16
6218;BME280;3142;48.206;11.550;2023-03-01T01:43:17;96245.59;;;2.61;65.66
6218;BME280;3142;48.206;11.550;2023-03-01T01:45:44;96244.78;;;2.61;65.73
6218;BME280;3142;48.206;11.550;2023-03-01T01:48:14;96235.38;;;2.60;66.26
6218;BME280;3142;48.206;11.550;2023-03-01T01:50:42;96241.50;;;2.59;66.01
6218;BME280;3142;48.206;11.550;2023-03-01T01:53:12;96239.47;;;2.53;66.54
6218;BME280;3142;48.206;11.550;2023-03-01T01:55:45;96236.09;;;2.52;65.96
6218;BME280;3142;48.206;11.550;2023-03-01T01:58:16;96236.47;;;2.57;66.28
6218;BME280;3142;48.206;11.550;2023-03-01T02:00:44;96230.91;;;2.62;66.45
6218;BME280;3142;48.206;11.550;2023-03-01T02:03:13;96228.47;;;2.60;66.23
6218;BME280;3142;48.206;11.550;2023-03-01T02:05:46;96222.59;;;2.58;66.39
6218;BME280;3142;48.206;11.550;2023-03-01T02:08:16;96220.31;;;2.65;66.29
6218;BME280;3142;48.206;11.550;2023-03-01T02:10:46;96224.53;;;2.66;66.13
6218;BME280;3142;48.206;11.550;2023-03-01T02:13:14;96217.31;;;2.60;65.57
6218;BME280;3142;48.206;11.550;2023-03-01T02:15:41;96222.22;;;2.53;66.07
6218;BME280;3142;48.206;11.550;2023-03-01T02:18:10;96217.31;;;2.60;66.33
6218;BME280;3142;48.206;11.550;2023-03-01T02:20:44;96221.13;;;2.65;65.88
6218;BME280;3142;48.206;11.550;2023-03-01T02:23:14;96214.19;;;2.66;66.42
6218;BME280;3142;48.206;11.550;2023-03-01T02:25:47;96215.44;;;2.62;66.55
6218;BME280;3142;48.206;11.550;2023-03-01T02:28:25;96216.09;;;2.64;66.13
6218;BME280;3142;48.206;11.550;2023-03-01T02:30:53;96207.25;;;2.57;65.95
6218;BME280;3142;48.206;11.550;2023-03-01T02:33:38;96209.59;;;2.50;66.15
6218;BME280;3142;48.206;11.550;2023-03-01T02:36:08;96208.34;;;2.64;65.86
6218;BME280;3142;48.206;11.550;2023-03-01T02:38:36;96206.59;;;2.64;66.47
6218;BME280;3142;48.206;11.550;2023-03-01T02:41:04;96198.41;;;2.59;66.66
6218;BME280;3142;48.206;11.550;2023-03-01T02:43:34;96201.94;;;2.58;66.05
6218;BME280;3142;48.206;11.550;2023-03-01T02:46:03;96207.13;;;2.58;65.81
6218;BME280;3142;48.206;11.550;2023-03-01T02:48:40;96199.41;;;2.49;65.46
6218;BME280;3142;48.206;11.550;2023-03-01T02:51:10;96201.97;;;2.49;65.75
6218;BME280;3142;48.206;11.550;2023-03-01T02:53:41;96189.22;;;2.47;66.22
6218;BME280;3142;48.206;11.550;2023-03-01T02:56:13;96197.22;;;2.44;65.52
6218;BME280;3142;48.206;11.550;2023-03-01T02:58:41;96193.28;;;2.40;65.53
6218;BME280;3142;48.206;11.550;2023-03-01T03:01:11;96197.34;;;2.33;65.19
6218;BME280;3142;48.206;11.550;2023-03-01T03:03:39;96196.13;;;2.37;64.82
6218;BME280;3142;48.206;11.550;2023-03-01T03:06:05;96197.38;;;2.23;64.47
6218;BME280;3142;48.206;11.550;2023-03-01T03:08:32;96196.00;;;2.10;64.94
6218;BME280;3142;48.206;11.550;2023-03-01T03:10:58;96205.09;;;2.04;65.83
6218;BME280;3142;48.206;11.550;2023-03-01T03:13:25;96204.56;;;2.10;66.27
6218;BME280;3142;48.206;11.550;2023-03-01T03:15:55;96197.09;;;2.26;65.37
6218;BME280;3142;48.206;11.550;2023-03-01T03:18:23;96204.81;;;2.17;65.01
6218;BME280;3142;48.206;11.550;2023-03-01T03:20:52;96200.47;;;2.17;65.85
6218;BME280;3142;48.206;11.550;2023-03-01T03:23:19;96203.19;;;2.16;65.70
6218;BME280;3142;48.206;11.550;2023-03-01T03:25:48;96202.09;;;2.18;65.13
6218;BME280;3142;48.206;11.550;2023-03-01T03:28:15;96201.84;;;2.12;64.91
6218;BME280;3142;48.206;11.550;2023-03-01T03:30:42;96201.16;;;2.10;65.61
6218;BME280;3142;48.206;11.550;2023-03-01T03:33:11;96188.81;;;2.13;65.41
6218;BME280;3142;48.206;11.550;2023-03-01T03:35:40;96189.75;;;2.02;65.41
6218;BME280;3142;48.206;11.550;2023-03-01T03:38:09;96193.00;;;2.04;65.20
6218;BME280;3142;48.206;11.550;2023-03-01T03:40:42;96192.19;;;2.04;65.44
6218;BME280;3142;48.206;11.550;2023-03-01T03:43:13;96194.22;;;2.00;65.46
6218;BME280;3142;48.206;11.550;2023-03-01T03:45:39;96194.34;;;1.99;65.29
6218;BME280;3142;48.206;11.550;2023-03-01T03:48:08;96189.88;;;2.01;65.14
6218;BME280;3142;48.206;11.550;2023-03-01T03:50:37;96184.84;;;1.99;65.42
6218;BME280;3142;48.206;11.550;2023-03-01T03:53:06;96182.69;;;2.04;65.80
6218;BME280;3142;48.206;11.550;2023-03-01T03:55:34;96187.72;;;2.06;65.71
6218;BME280;3142;48.206;11.550;2023-03-01T03:58:02;96185.16;;;2.06;65.33
6218;BME280;3142;48.206;11.550;2023-03-01T04:00:32;96179.84;;;1.98;65.72
6218;BME280;3142;48.206;11.550;2023-03-01T04:02:59;96170.72;;;2.03;66.02
6218;BME280;3142;48.206;11.550;2023-03-01T04:05:27;96174.41;;;2.01;65.84
6218;BME280;3142;48.206;11.550;2023-03-01T04:07:55;96162.84;;;2.05;66.22
6218;BME280;3142;48.206;11.550;2023-03-01T04:10:34;96166.25;;;2.05;65.41
6218;BME280;3142;48.206;11.550;2023-03-01T04:13:01;96160.16;;;1.97;66.10
6218;BME280;3142;48.206;11.550;2023-03-01T04:15:27;96156.06;;;1.94;65.64
6218;BME280;3142;48.206;11.550;2023-03-01T04:17:55;96169.34;;;1.90;65.72
6218;BME280;3142;48.206;11.550;2023-03-01T04:20:22;96163.13;;;1.83;65.84
6218;BME280;3142;48.206;11.550;2023-03-01T04:22:51;96167.84;;;1.77;66.03
6218;BME280;3142;48.206;11.550;2023-03-01T04:25:19;96170.56;;;1.76;66.25
6218;BME280;3142;48.206;11.550;2023-03-01T04:27:46;96165.56;;;1.84;66.46
6218;BME280;3142;48.206;11.550;2023-03-01T04:30:13;96168.94;;;1.75;65.73
6218;BME280;3142;48.206;11.550;2023-03-01T04:32:40;96168.25;;;1.73;66.41
6218;BME280;3142;48.206;11.550;2023-03-01T04:35:07;96167.84;;;1.68;66.83
6218;BME280;3142;48.206;11.550;2023-03-01T04:37:33;96171.25;;;1.68;66.89
6218;BME280;3142;48.206;11.550;2023-03-01T04:40:00;96169.22;;;1.72;66.61
6218;BME280;3142;48.206;11.550;2023-03-01T04:42:38;96166.34;;;1.75;66.43
6218;BME280;3142;48.206;11.550;2023-03-01T04:45:06;96168.94;;;1.65;66.03
6218;BME280;3142;48.206;11.550;2023-03-01T04:47:38;96165.25;;;1.58;66.30
6218;BME280;3142;48.206;11.550;2023-03-01T04:50:06;96170.69;;;1.55;66.31
6218;BME280;3142;48.206;11.550;2023-03-01T04:52:32;96162.63;;;1.48;66.30
6218;BME280;3142;48.206;11.550;2023-03-01T04:54:59;96159.78;;;1.42;66.65
6218;BME280;3142;48.206;11.550;2023-03-01T04:57:25;96163.59;;;1.38;66.68
6218;BME280;3142;48.206;11.550;2023-03-01T04:59:53;96156.78;;;1.37;66.79
6218;BME280;3142;48.206;11.550;2023-03-01T05:02:19;96166.28;;;1.36;67.10
6218;BME280;3142;48.206;11.550;2023-03-01T05:04:46;96161.81;;;1.38;66.86
6218;BME280;3142;48.206;11.550;2023-03-01T05:07:12;96160.44;;;1.34;66.68
6218;BME280;3142;48.206;11.550;2023-03-01T05:09:45;96156.09;;;1.35;67.27
6218;BME280;3142;48.206;11.550;2023-03-01T05:12:11;96151.75;;;1.35;66.74
6218;BME280;3142;48.206;11.550;2023-03-01T05:14:38;96153.09;;;1.30;66.70
6218;BME280;3142;48.206;11.550;2023-03-01T05:17:06;96159.63;;;1.34;66.88
6218;BME280;3142;48.206;11.550;2023-03-01T05:19:33;96147.41;;;1.36;66.84
6218;BME280;3142;48.206;11.550;2023-03-01T05:22:00;96146.09;;;1.41;66.66
6218;BME280;3142;48.206;11.550;2023-03-01T05:24:31;96148.81;;;1.40;66.74
6218;BME280;3142;48.206;11.550;2023-03-01T05:26:58;96156.22;;;1.33;66.67
6218;BME280;3142;48.206;11.550;2023-03-01T05:29:26;96148.75;;;1.30;66.67
6218;BME280;3142;48.206;11.550;2023-03-01T05:31:53;96157.84;;;1.34;66.88
6218;BME280;3142;48.206;11.550;2023-03-01T05:34:22;96151.38;;;1.40;66.82
6218;BME280;3142;48.206;11.550;2023-03-01T05:36:49;96144.84;;;1.36;66.84
6218;BME280;3142;48.206;11.550;2023-03-01T05:39:18;96152.47;;;1.47;66.78
6218;BME280;3142;48.206;11.550;2023-03-01T05:41:45;96155.59;;;1.41;66.44
6218;BME280;3142;48.206;11.550;2023-03-01T05:44:11;96153.66;;;1.24;66.65
6218;BME280;3142;48.206;11.550;2023-03-01T05:46:38;96149.72;;;1.29;66.24
6218;BME280;3142;48.206;11.550;2023-03-01T05:49:04;96152.13;;;1.21;66.72
6218;BME280;3142;48.206;11.550;2023-03-01T05:51:32;96155.91;;;1.17;66.77
6218;BME280;3142;48.206;11.550;2023-03-01T05:53:59;96141.94;;;1.19;66.87
6218;BME280;3142;48.206;11.550;2023-03-01T05:56:25;96148.59;;;1.22;67.13
6218;BME280;3142;48.206;11.550;2023-03-01T05:58:52;96149.69;;;1.19;66.70
6218;BME280;3142;48.206;11.550;2023-03-01T06:01:18;96156.44;;;1.11;66.75
6218;BME280;3142;48.206;11.550;2023-03-01T06:03:44;96147.31;;;0.97;67.24
6218;BME280;3142;48.206;11.550;2023-03-01T06:06:11;96148.50;;;0.93;67.19
6218;BME280;3142;48.206;11.550;2023-03-01T06:08:39;96141.91;;;1.00;67.87
6218;BME280;3142;48.206;11.550;2023-03-01T06:11:05;96152.75;;;1.04;67.54
6218;BME280;3142;48.206;11.550;2023-03-01T06:13:32;96143.66;;;1.00;67.08
6218;BME280;3142;48.206;11.550;2023-03-01T06:15:59;96158.78;;;0.93;66.97
6218;BME280;3142;48.206;11.550;2023-03-01T06:18:25;96152.53;;;0.86;67.50
6218;BME280;3142;48.206;11.550;2023-03-01T06:20:53;96165.97;;;0.89;67.54
6218;BME280;3142;48.206;11.550;2023-03-01T06:23:19;96157.69;;;0.86;67.49
6218;BME280;3142;48.206;11.550;2023-03-01T06:25:47;96156.63;;;0.88;67.66
6218;BME280;3142;48.206;11.550;2023-03-01T06:28:13;96161.25;;;0.95;67.32
6218;BME280;3142;48.206;11.550;2023-03-01T06:30:40;96167.47;;;0.92;67.36
6218;BME280;3142;48.206;11.550;2023-03-01T06:33:07;96165.56;;;0.84;67.56
6218;BME280;3142;48.206;11.550;2023-03-01T06:35:33;96169.88;;;0.84;67.57
6218;BME280;3142;48.206;11.550;2023-03-01T06:38:01;96169.06;;;0.83;67.44
6218;BME280;3142;48.206;11.550;2023-03-01T06:40:29;96168.81;;;0.86;67.94
6218;BME280;3142;48.206;11.550;2023-03-01T06:42:57;96169.78;;;0.95;67.63
6218;BME280;3142;48.206;11.550;2023-03-01T06:45:24;96168.97;;;0.95;67.46
6218;BME280;3142;48.206;11.550;2023-03-01T06:47:50;96168.72;;;0.98;67.59
6218;BME280;3142;48.206;11.550;2023-03-01T06:50:18;96169.16;;;0.82;67.23
6218;BME280;3142;48.206;11.550;2023-03-01T06:52:45;96170.03;;;0.82;67.75
6218;BME280;3142;48.206;11.550;2023-03-01T06:55:11;96163.53;;;0.88;67.63
6218;BME280;3142;48.206;11.550;2023-03-01T06:57:38;96171.38;;;0.86;67.50
6218;BME280;3142;48.206;11.550;2023-03-01T07:00:07;96162.72;;;0.87;67.68
6218;BME280;3142;48.206;11.550;2023-03-01T07:02:34;96163.25;;;0.91;67.70
6218;BME280;3142;48.206;11.550;2023-03-01T07:05:00;96155.28;;;0.94;67.60
6218;BME280;3142;48.206;11.550;2023-03-01T07:07:27;96159.38;;;0.97;67.41
6218;BME280;3142;48.206;11.550;2023-03-01T07:09:53;96163.72;;;1.06;67.70
6218;BME280;3142;48.206;11.550;2023-03-01T07:12:19;96167.44;;;1.23;67.37
6218;BME280;3142;48.206;11.550;2023-03-01T07:14:46;96167.31;;;1.14;66.71
6218;BME280;3142;48.206;11.550;2023-03-01T07:17:14;96166.16;;;0.98;67.09
6218;BME280;3142;48.206;11.550;2023-03-01T07:19:40;96167.91;;;0.97;67.08
6218;BME280;3142;48.206;11.550;2023-03-01T07:22:06;96158.97;;;1.01;67.27
6218;BME280;3142;48.206;11.550;2023-03-01T07:24:34;96153.97;;;1.00;67.25
6218;BME280;3142;48.206;11.550;2023-03-01T07:27:01;96150.84;;;1.06;67.21
6218;BME280;3142;48.206;11.550;2023-03-01T07:29:28;96149.50;;;1.02;66.94
6218;BME280;3142;48.206;11.550;2023-03-01T07:31:54;96152.19;;;1.00;67.05
6218;BME280;3142;48.206;11.550;2023-03-01T07:34:22;96142.72;;;1.01;66.97
6218;BME280;3142;48.206;11.550;2023-03-01T07:36:49;96137.41;;;1.02;66.92
6218;BME280;3142;48.206;11.550;2023-03-01T07:39:15;96130.78;;;1.00;66.82
6218;BME280;3142;48.206;11.550;2023-03-01T07:41:42;96137.00;;;0.97;67.16
6218;BME280;3142;48.206;11.550;2023-03-01T07:44:08;96143.13;;;1.06;66.94
6218;BME280;3142;48.206;11.550;2023-03-01T07:46:34;96131.75;;;1.08;66.78
6218;BME280;3142;48.206;11.550;2023-03-01T07:49:01;96127.66;;;1.06;66.71
6218;BME280;3142;48.206;11.550;2023-03-01T07:51:29;96133.94;;;1.23;66.71
6218;BME280;3142;48.206;11.550;2023-03-01T07:53:55;96125.31;;;1.24;66.31
6218;BME280;3142;48.206;11.550;2023-03-01T07:56:21;96142.50;;;1.23;66.84
6218;BME280;3142;48.206;11.550;2023-03-01T07:58:48;96128.56;;;1.35;66.57
6218;BME280;3142;48.206;11.550;2023-03-01T08:01:16;96126.03;;;1.55;66.64
6218;BME280;3142;48.206;11.550;2023-03-01T08:03:43;96131.19;;;1.64;66.11
6218;BME280;3142;48.206;11.550;2023-03-01T08:06:11;96131.19;;;1.55;65.14
6218;BME280;3142;48.206;11.550;2023-03-01T08:08:39;96129.94;;;1.39;65.42
6218;BME280;3142;48.206;11.550;2023-03-01T08:11:07;96124.66;;;1.41;65.78
6218;BME280;3142;48.206;11.550;2023-03-01T08:13:34;96124.50;;;1.33;65.51
6218;BME280;3142;48.206;11.550;2023-03-01T08:16:01;96125.31;;;1.33;66.22
6218;BME280;3142;48.206;11.550;2023-03-01T08:18:28;96124.94;;;1.38;65.75
6218;BME280;3142;48.206;11.550;2023-03-01T08:20:54;96118.00;;;1.38;65.82
6218;BME280;3142;48.206;11.550;2023-03-01T08:23:21;96119.63;;;1.39;65.24
6218;BME280;3142;48.206;11.550;2023-03-01T08:25:49;96125.97;;;1.35;65.98
6218;BME280;3142;48.206;11.550;2023-03-01T08:28:15;96125.16;;;1.35;65.95
6218;BME280;3142;48.206;11.550;2023-03-01T08:30:41;96116.75;;;1.33;65.66
6218;BME280;3142;48.206;11.550;2023-03-01T08:33:08;96117.19;;;1.38;66.17
6218;BME280;3142;48.206;11.550;2023-03-01T08:35:34;96113.66;;;1.48;65.45
6218;BME280;3142;48.206;11.550;2023-03-01T08:38:01;96120.31;;;1.41;65.80
6218;BME280;3142;48.206;11.550;2023-03-01T08:40:27;96113.13;;;1.45;65.41
6218;BME280;3142;48.206;11.550;2023-03-01T08:42:55;96116.69;;;1.54;65.71
6218;BME280;3142;48.206;11.550;2023-03-01T08:45:22;96108.28;;;1.71;65.86
6218;BME280;3142;48.206;11.550;2023-03-01T08:47:52;96104.06;;;1.89;64.79
6218;BME280;3142;48.206;11.550;2023-03-01T08:50:18;96103.09;;;2.00;64.76
6218;BME280;3142;48.206;11.550;2023-03-01T08:52:44;96097.69;;;1.93;63.88
6218;BME280;3142;48.206;11.550;2023-03-01T08:55:11;96096.59;;;1.86;64.23
6218;BME280;3142;48.206;11.550;2023-03-01T08:57:38;96088.59;;;1.89;64.38
6218;BME280;3142;48.206;11.550;2023-03-01T09:00:07;96099.56;;;2.01;64.10
6218;BME280;3142;48.206;11.550;2023-03-01T09:02:34;96094.28;;;2.02;64.32
6218;BME280;3142;48.206;11.550;2023-03-01T09:05:01;96092.53;;;1.93;64.04
6218;BME280;3142;48.206;11.550;2023-03-01T09:07:27;96095.66;;;1.87;64.26
6218;BME280;3142;48.206;11.550;2023-03-01T09:09:54;96093.63;;;1.81;64.42
6218;BME280;3142;48.206;11.550;2023-03-01T09:12:20;96094.31;;;1.83;64.71
6218;BME280;3142;48.206;11.550;2023-03-01T09:14:47;96102.16;;;1.91;65.39
6218;BME280;3142;48.206;11.550;2023-03-01T09:17:15;96096.47;;;2.07;65.03
6218;BME280;3142;48.206;11.550;2023-03-01T09:19:41;96107.84;;;2.14;64.80
6218;BME280;3142;48.206;11.550;2023-03-01T09:22:08;96099.28;;;2.04;64.14
6218;BME280;3142;48.206;11.550;2023-03-01T09:24:34;96097.94;;;2.10;64.92
6218;BME280;3142;48.206;11.550;2023-03-01T09:27:00;96099.81;;;2.17;64.82
6218;BME280;3142;48.206;11.550;2023-03-01T09:29:28;96099.44;;;2.22;64.69
6218;BME280;3142;48.206;11.550;2023-03-01T09:31:54;96092.75;;;2.19;64.70
6218;BME280;3142;48.206;11.550;2023-03-01T09:34:22;96094.56;;;1.99;65.35
6218;BME280;3142;48.206;11.550;2023-03-01T09:36:49;96083.00;;;2.03;65.69
6218;BME280;3142;48.206;11.550;2023-03-01T09:39:16;96090.75;;;2.13;65.34
6218;BME280;3142;48.206;11.550;2023-03-01T09:41:46;96086.91;;;2.27;65.48
6218;BME280;3142;48.206;11.550;2023-03-01T09:44:28;96087.16;;;2.43;65.60
6218;BME280;3142;48.206;11.550;2023-03-01T09:46:56;96080.56;;;2.68;64.50
6218;BME280;3142;48.206;11.550;2023-03-01T09:49:26;96078.91;;;2.77;63.68
6218;BME280;3142;48.206;11.550;2023-03-01T09:51:59;96074.75;;;2.56;63.19
6218;BME280;3142;48.206;11.550;2023-03-01T09:54:26;96074.75;;;2.56;63.48
6218;BME280;3142;48.206;11.550;2023-03-01T09:57:13;96073.13;;;2.55;63.78
6218;BME280;3142;48.206;11.550;2023-03-01T09:59:55;96077.31;;;2.56;63.11
6218;BME280;3142;48.206;11.550;2023-03-01T10:02:27;96079.44;;;2.71;63.50
6218;BME280;3142;48.206;11.550;2023-03-01T10:05:06;96061.19;;;3.09;62.05
6218;BME280;3142;48.206;11.550;2023-03-01T10:07:45;96069.84;;;3.45;62.08
6218;BME280;3142;48.206;11.550;2023-03-01T10:10:25;96056.66;;;3.92;60.58
6218;BME280;3142;48.206;11.550;2023-03-01T10:12:53;96045.69;;;4.76;59.20
6218;BME280;3142;48.206;11.550;2023-03-01T10:15:34;96049.56;;;5.14;57.45
6218;BME280;3142;48.206;11.550;2023-03-01T10:18:04;96048.16;;;5.28;56.07
6218;BME280;3142;48.206;11.550;2023-03-01T10:20:42;96041.59;;;5.66;55.28
6218;BME280;3142;48.206;11.550;2023-03-01T10:23:10;96042.13;;;5.94;54.04
6218;BME280;3142;48.206;11.550;2023-03-01T10:25:47;96042.25;;;6.33;52.92
6218;BME280;3142;48.206;11.550;2023-03-01T10:28:25;96044.88;;;6.09;53.22
6218;BME280;3142;48.206;11.550;2023-03-01T10:30:52;96037.09;;;6.09;53.41
6218;BME280;3142;48.206;11.550;2023-03-01T10:33:22;96037.69;;;5.62;53.13
6218;BME280;3142;48.206;11.550;2023-03-01T10:35:50;96036.41;;;5.66;52.54
6218;BME280;3142;48.206;11.550;2023-03-01T10:38:18;96041.69;;;5.24;54.14
6218;BME280;3142;48.206;11.550;2023-03-01T10:40:53;96043.78;;;5.28;54.28
6218;BME280;3142;48.206;11.550;2023-03-01T10:43:23;96033.78;;;5.74;54.57
6218;BME280;3142;48.206;11.550;2023-03-01T10:45:50;96030.09;;;5.77;53.21
6218;BME280;3142;48.206;11.550;2023-03-01T10:48:18;96034.44;;;6.41;52.60
6218;BME280;3142;48.206;11.550;2023-03-01T10:50:48;96020.88;;;6.70;51.48
6218;BME280;3142;48.206;11.550;2023-03-01T10:53:22;96009.78;;;7.47;50.64
6218;BME280;3142;48.206;11.550;2023-03-01T10:55:58;96008.03;;;7.16;50.12
6218;BME280;3142;48.206;11.550;2023-03-01T10:58:25;96009.97;;;7.45;50.40
6218;BME280;3142;48.206;11.550;2023-03-01T11:00:54;95989.56;;;8.32;49.19
6218;BME280;3142;48.206;11.550;2023-03-01T11:03:25;95987.16;;;8.60;47.95
6218;BME280;3142;48.206;11.550;2023-03-01T11:05:58;95982.47;;;8.26;47.38
6218;BME280;3142;48.206;11.550;2023-03-01T11:08:44;95984.47;;;8.01;47.95
6218;BME280;3142;48.206;11.550;2023-03-01T11:11:22;95968.22;;;8.51;48.03
6218;BME280;3142;48.206;11.550;2023-03-01T11:13:53;95959.97;;;8.99;46.65
6218;BME280;3142;48.206;11.550;2023-03-01T11:16:26;95955.38;;;9.37;45.68
6218;BME280;3142;48.206;11.550;2023-03-01T11:18:58;95959.91;;;8.92;45.01
6218;BME280;3142;48.206;11.550;2023-03-01T11:21:26;95952.25;;;8.76;45.24
6218;BME280;3142;48.206;11.550;2023-03-01T11:23:56;95947.38;;;8.87;46.14
6218;BME280;3142;48.206;11.550;2023-03-01T11:26:24;95935.78;;;8.90;45.03
6218;BME280;3142;48.206;11.550;2023-03-01T11:28:53;95934.94;;;9.04;46.07
6218;BME280;3142;48.206;11.550;2023-03-01T11:31:23;95933.31;;;9.61;46.10
6218;BME280;3142;48.206;11.550;2023-03-01T11:33:54;95932.84;;;10.06;44.61
6218;BME280;3142;48.206;11.550;2023-03-01T11:36:28;95930.03;;;10.29;43.25
6218;BME280;3142;48.206;11.550;2023-03-01T11:39:03;95924.41;;;10.32;43.90
6218;BME280;3142;48.206;11.550;2023-03-01T11:41:33;95919.78;;;10.69;43.67
6218;BME280;3142;48.206;11.550;2023-03-01T11:44:05;95920.47;;;10.50;42.92
6218;BME280;3142;48.206;11.550;2023-03-01T11:46:53;95916.50;;;9.98;43.16
6218;BME280;3142;48.206;11.550;2023-03-01T11:49:40;95909.09;;;10.29;43.69
6218;BME280;3142;48.206;11.550;2023-03-01T11:52:19;95906.72;;;10.41;43.11
6218;BME280;3142;48.206;11.550;2023-03-01T11:55:05;95899.81;;;10.27;43.75
6218;BME280;3142;48.206;11.550;2023-03-01T11:57:46;95902.97;;;10.50;43.55
6218;BME280;3142;48.206;11.550;2023-03-01T12:00:23;95894.03;;;10.31;43.14
6218;BME280;3142;48.206;11.550;2023-03-01T12:03:12;95890.16;;;10.68;42.99
6218;BME280;3142;48.206;11.550;2023-03-01T12:05:56;95910.47;;;10.25;43.19
6218;BME280;3142;48.206;11.550;2023-03-01T12:08:34;95897.56;;;9.89;43.80
6218;BME280;3142;48.206;11.550;2023-03-01T12:11:13;95897.06;;;9.51;44.62
6218;BME280;3142;48.206;11.550;2023-03-01T12:14:00;95889.41;;;9.28;45.51
6218;BME280;3142;48.206;11.550;2023-03-01T12:16:46;95883.28;;;9.64;45.79
6218;BME280;3142;48.206;11.550;2023-03-01T12:19:31;95885.00;;;9.50;44.96
6218;BME280;3142;48.206;11.550;2023-03-01T12:22:11;95876.13;;;9.23;45.69
6218;BME280;3142;48.206;11.550;2023-03-01T12:24:59;95873.34;;;9.31;46.10
6218;BME280;3142;48.206;11.550;2023-03-01T12:27:45;95873.53;;;8.87;47.33
6218;BME280;3142;48.206;11.550;2023-03-01T12:30:27;95872.72;;;8.50;47.23
6218;BME280;3142;48.206;11.550;2023-03-01T12:33:07;95867.41;;;8.58;48.15
6218;BME280;3142;48.206;11.550;2023-03-01T12:35:51;95859.91;;;8.70;48.32
6218;BME280;3142;48.206;11.550;2023-03-01T12:38:32;95862.03;;;8.81;47.62
6218;BME280;3142;48.206;11.550;2023-03-01T12:44:11;95845.31;;;8.76;48.22
6218;BME280;3142;48.206;11.550;2023-03-01T12:46:52;95840.97;;;9.04;48.42
6218;BME280;3142;48.206;11.550;2023-03-01T12:49:25;95836.16;;;9.23;48.31
6218;BME280;3142;48.206;11.550;2023-03-01T12:51:58;95842.56;;;8.77;46.82
6218;BME280;3142;48.206;11.550;2023-03-01T12:54:29;95855.47;;;8.85;47.52
6218;BME280;3142;48.206;11.550;2023-03-01T12:56:57;95852.28;;;8.69;48.43
6218;BME280;3142;48.206;11.550;2023-03-01T12:59:31;95853.09;;;8.69;47.99
6218;BME280;3142;48.206;11.550;2023-03-01T13:02:05;95846.59;;;8.80;48.18
6218;BME280;3142;48.206;11.550;2023-03-01T13:04:48;95845.66;;;8.51;48.70
6218;BME280;3142;48.206;11.550;2023-03-01T13:07:29;95858.34;;;8.25;48.23
6218;BME280;3142;48.206;11.550;2023-03-01T13:10:06;95866.34;;;8.09;49.57
6218;BME280;3142;48.206;11.550;2023-03-01T13:12:45;95851.97;;;8.27;50.23
6218;BME280;3142;48.206;11.550;2023-03-01T13:15:31;95846.00;;;8.48;49.60
6218;BME280;3142;48.206;11.550;2023-03-01T13:17:59;95850.41;;;8.48;48.47
6218;BME280;3142;48.206;11.550;2023-03-01T13:20:31;95849.25;;;8.36;48.65
6218;BME280;3142;48.206;11.550;2023-03-01T13:23:06;95854.47;;;8.50;49.89
6218;BME280;3142;48.206;11.550;2023-03-01T13:25:33;95852.56;;;8.59;49.26
6218;BME280;3142;48.206;11.550;2023-03-01T13:28:47;95852.66;;;8.66;49.05
6218;BME280;3142;48.206;11.550;2023-03-01T13:34:53;95845.09;;;8.56;49.27
6218;BME280;3142;48.206;11.550;2023-03-01T13:37:35;95840.75;;;8.63;49.71
6218;BME280;3142;48.206;11.550;2023-03-01T13:42:51;95831.41;;;8.90;48.40
6218;BME280;3142;48.206;11.550;2023-03-01T13:45:20;95814.09;;;8.82;48.77
6218;BME280;3142;48.206;11.550;2023-03-01T13:47:52;95818.69;;;8.80;49.92